Time;durP1;ratioP1;P1;durP2;ratioP2;P2;SDS_P1;SDS_P2;PMS_P1;PMS_P2;Temp;Humidity;BMP_temperature;BMP_pressure;BME280_temperature;BME280_humidity;BME280_pressure;Samples;Min_cycle;Max_cycle;Signal;HPM_P1;HPM_P2
2021/03/28 00:02:29;;;;;;;;;;;;;;;7.67;56.84;102277.03;4938830;28;97483;-86
2021/03/28 00:04:57;;;;;;;;;;;;;;;7.95;55.93;102276.13;4935921;28;97086;-85
2021/03/28 00:07:24;;;;;;;;;;;;;;;7.97;55.88;102269.13;4945853;28;96696;-87
2021/03/28 00:09:54;;;;;;;;;;;;;;;8.05;55.76;102272.63;4937649;28;99677;-89
2021/03/28 00:12:26;;;;;;;;;;;;;;;8.29;55.05;102269.97;4936381;28;98060;-85
2021/03/28 00:15:02;;;;;;;;;;;;;;;8.26;54.87;102277.88;4933125;28;96802;-87
2021/03/28 00:17:36;;;;;;;;;;;;;;;8.36;54.42;102273.50;4935397;28;96932;-85
2021/03/28 00:20:12;;;;;;;;;;;;;;;8.17;54.95;102280.53;4943126;28;99109;-87
2021/03/28 00:22:45;;;;;;;;;;;;;;;7.90;55.94;102272.63;4945099;28;100037;-85
2021/03/28 00:25:14;;;;;;;;;;;;;;;7.76;56.06;102274.38;4944567;28;97392;-85
2021/03/28 00:27:44;;;;;;;;;;;;;;;7.97;56.19;102272.63;4926799;28;96791;-83
2021/03/28 00:30:24;;;;;;;;;;;;;;;7.89;55.59;102265.63;4945183;28;100937;-85
2021/03/28 00:32:51;;;;;;;;;;;;;;;7.88;55.98;102277.91;4942327;28;98888;-84
2021/03/28 00:35:18;;;;;;;;;;;;;;;7.32;57.37;102272.59;4946645;28;96747;-84
2021/03/28 00:37:45;;;;;;;;;;;;;;;7.78;56.18;102277.91;4949293;28;97543;-85
2021/03/28 00:40:19;;;;;;;;;;;;;;;7.88;56.19;102277.00;4946506;28;97915;-85
2021/03/28 00:42:48;;;;;;;;;;;;;;;7.63;56.63;102280.53;4938905;28;99338;-85
2021/03/28 00:45:18;;;;;;;;;;;;;;;7.95;55.76;102271.75;4942048;28;96798;-84
2021/03/28 00:47:48;;;;;;;;;;;;;;;8.14;55.14;102269.97;4952383;28;96660;-85
2021/03/28 00:50:29;;;;;;;;;;;;;;;8.05;55.38;102277.91;4944977;28;97745;-83
2021/03/28 00:52:56;;;;;;;;;;;;;;;7.96;55.63;102275.25;4935263;28;96698;-84
2021/03/28 00:58:08;;;;;;;;;;;;;;;7.82;55.69;102284.91;4940736;28;98519;-84
2021/03/28 01:00:46;;;;;;;;;;;;;;;7.91;55.94;102290.19;4940545;28;101486;-85
2021/03/28 01:03:25;;;;;;;;;;;;;;;7.57;56.51;102291.91;4948333;28;100677;-85
2021/03/28 01:05:53;;;;;;;;;;;;;;;7.71;56.13;102291.94;4956168;28;96785;-84
2021/03/28 01:08:27;;;;;;;;;;;;;;;7.52;56.74;102291.91;4944656;28;96821;-85
2021/03/28 01:11:05;;;;;;;;;;;;;;;7.68;56.35;102298.06;4957571;28;98981;-85
2021/03/28 01:13:52;;;;;;;;;;;;;;;7.77;55.93;102297.19;4958955;28;99934;-82
2021/03/28 01:16:48;;;;;;;;;;;;;;;7.98;55.34;102292.81;4957358;28;97321;-85
2021/03/28 01:19:22;;;;;;;;;;;;;;;7.78;55.62;102304.22;4948482;28;96735;-84
2021/03/28 01:21:59;;;;;;;;;;;;;;;7.73;55.99;102305.97;4958965;28;98255;-87
2021/03/28 01:24:30;;;;;;;;;;;;;;;7.73;55.76;102312.13;4951251;28;99980;-85
2021/03/28 01:30:09;;;;;;;;;;;;;;;7.94;55.45;102316.53;4954701;28;96513;-88
2021/03/28 01:32:37;;;;;;;;;;;;;;;7.95;55.60;102311.25;4950822;28;98807;-86
2021/03/28 01:35:14;;;;;;;;;;;;;;;7.93;55.44;102322.66;4948786;28;97697;-86
2021/03/28 01:37:43;;;;;;;;;;;;;;;8.20;54.33;102314.75;4943901;28;96811;-83
2021/03/28 01:40:10;;;;;;;;;;;;;;;8.13;54.70;102310.38;4950309;28;96591;-87
2021/03/28 01:42:52;;;;;;;;;;;;;;;8.10;54.46;102314.75;4945980;28;98847;-86
2021/03/28 01:45:26;;;;;;;;;;;;;;;8.06;54.93;102315.63;4930789;28;100173;-86
2021/03/28 01:47:57;;;;;;;;;;;;;;;8.17;54.80;102308.59;4935371;28;96621;-83
2021/03/28 01:50:28;;;;;;;;;;;;;;;8.31;54.09;102309.50;4928566;28;97001;-84
2021/03/28 01:53:02;;;;;;;;;;;;;;;8.08;54.91;102304.22;4948461;28;101256;-83
2021/03/28 01:55:32;;;;;;;;;;;;;;;8.20;54.59;102298.97;4936714;28;98723;-83
2021/03/28 01:58:01;;;;;;;;;;;;;;;8.02;54.75;102309.47;4937290;28;97388;-83
2021/03/28 02:00:38;;;;;;;;;;;;;;;8.17;54.09;102308.59;4935854;28;96880;-83
2021/03/28 02:03:07;;;;;;;;;;;;;;;8.18;54.84;102308.59;4939011;28;97842;-83
2021/03/28 02:05:56;;;;;;;;;;;;;;;8.16;54.30;102302.47;4937066;28;97774;-82
2021/03/28 02:08:25;;;;;;;;;;;;;;;8.39;53.71;102311.25;4932686;28;96842;-83
2021/03/28 02:10:57;;;;;;;;;;;;;;;8.35;53.95;102304.22;4937374;28;96998;-84
2021/03/28 02:13:38;;;;;;;;;;;;;;;8.33;53.93;102306.00;4931587;28;98904;-82
2021/03/28 02:16:12;;;;;;;;;;;;;;;7.99;54.40;102301.59;4936471;28;100718;-84
2021/03/28 02:18:59;;;;;;;;;;;;;;;8.09;54.30;102294.56;4952920;28;96670;-84
2021/03/28 02:21:30;;;;;;;;;;;;;;;8.15;54.29;102295.44;4922253;28;98104;-86
2021/03/28 02:23:58;;;;;;;;;;;;;;;8.12;54.20;102295.47;4938130;28;97875;-87
2021/03/28 02:26:31;;;;;;;;;;;;;;;8.02;55.12;102299.84;4937981;28;97810;-86
2021/03/28 02:29:13;;;;;;;;;;;;;;;8.01;54.67;102300.72;4949907;28;96737;-85
2021/03/28 02:31:51;;;;;;;;;;;;;;;7.86;55.14;102318.28;4939976;28;96589;-85
2021/03/28 02:34:22;;;;;;;;;;;;;;;7.83;55.29;102315.63;4954359;28;98238;-87
2021/03/28 02:36:59;;;;;;;;;;;;;;;7.70;55.77;102317.38;4935678;28;97881;-87
2021/03/28 02:39:28;;;;;;;;;;;;;;;7.91;55.20;102321.78;4944603;28;96511;-84
2021/03/28 02:42:07;;;;;;;;;;;;;;;8.16;54.45;102315.63;4956460;28;96458;-87
2021/03/28 02:44:54;;;;;;;;;;;;;;;8.17;54.33;102309.47;4944811;28;98164;-87
2021/03/28 02:47:32;;;;;;;;;;;;;;;8.12;54.25;102316.50;4932809;28;97864;-87
2021/03/28 02:50:15;;;;;;;;;;;;;;;8.02;54.42;102320.91;4921398;28;96922;-85
2021/03/28 02:52:57;;;;;;;;;;;;;;;7.99;54.66;102320.03;4943394;28;96593;-85
2021/03/28 02:55:40;;;;;;;;;;;;;;;8.17;54.47;102327.03;4943329;28;97917;-86
2021/03/28 02:58:19;;;;;;;;;;;;;;;8.22;53.97;102328.78;4935854;28;98185;-86
2021/03/28 03:00:53;;;;;;;;;;;;;;;8.17;54.24;102325.28;4934063;28;96813;-86
2021/03/28 03:03:31;;;;;;;;;;;;;;;7.93;54.64;102330.56;4941768;28;96879;-84
2021/03/28 03:06:15;;;;;;;;;;;;;;;7.89;54.68;102334.03;4925378;28;100302;-85
2021/03/28 03:08:42;;;;;;;;;;;;;;;8.10;54.47;102341.97;4938622;28;99609;-87
2021/03/28 03:11:23;;;;;;;;;;;;;;;8.14;54.04;102334.97;4935012;28;96833;-85
2021/03/28 03:13:55;;;;;;;;;;;;;;;8.37;53.70;102333.19;4939087;28;96595;-86
2021/03/28 03:16:25;;;;;;;;;;;;;;;8.27;54.00;102337.56;4941078;28;96901;-87
2021/03/28 03:19:19;;;;;;;;;;;;;;;8.48;53.08;102335.81;4951676;28;97755;-87
2021/03/28 03:22:10;;;;;;;;;;;;;;;8.24;53.72;102342.84;4951636;28;96600;-86
2021/03/28 03:24:59;;;;;;;;;;;;;;;8.35;53.37;102340.22;4941850;28;96811;-87
2021/03/28 03:27:37;;;;;;;;;;;;;;;8.30;53.71;102342.88;4949821;28;101046;-85
2021/03/28 03:30:20;;;;;;;;;;;;;;;8.20;53.87;102350.75;4945722;28;98249;-86
2021/03/28 03:32:59;;;;;;;;;;;;;;;8.02;54.20;102351.59;4943407;28;97238;-82
2021/03/28 03:35:30;;;;;;;;;;;;;;;8.25;53.88;102352.50;4934593;28;98875;-81
2021/03/28 03:38:16;;;;;;;;;;;;;;;7.96;54.59;102359.50;4934930;28;96936;-83
2021/03/28 03:41:01;;;;;;;;;;;;;;;8.07;54.22;102364.78;4929392;28;99043;-84
2021/03/28 03:43:38;;;;;;;;;;;;;;;8.03;54.01;102363.91;4924144;28;96702;-83
2021/03/28 03:46:12;;;;;;;;;;;;;;;7.55;54.86;102362.94;4932417;28;96718;-83
2021/03/28 03:48:56;;;;;;;;;;;;;;;8.00;54.01;102369.19;4936204;28;98380;-83
2021/03/28 03:51:45;;;;;;;;;;;;;;;8.09;53.71;102373.53;4933952;28;101245;-83
2021/03/28 03:54:14;;;;;;;;;;;;;;;8.23;53.35;102371.81;4931643;28;96966;-83
2021/03/28 03:56:49;;;;;;;;;;;;;;;8.28;52.96;102367.41;4927026;28;96809;-83
2021/03/28 03:59:24;;;;;;;;;;;;;;;8.21;53.38;102382.31;4940678;28;98536;-84
2021/03/28 04:01:56;;;;;;;;;;;;;;;8.29;52.77;102372.69;4934231;28;99242;-84
2021/03/28 04:04:30;;;;;;;;;;;;;;;8.36;52.56;102363.94;4933160;28;97607;-83
2021/03/28 04:07:02;;;;;;;;;;;;;;;8.35;52.60;102362.16;4942357;28;96989;-84
2021/03/28 04:09:34;;;;;;;;;;;;;;;8.35;52.38;102366.56;4933745;28;100940;-83
2021/03/28 04:12:19;;;;;;;;;;;;;;;8.36;52.55;102368.31;4941697;28;97789;-84
2021/03/28 04:14:55;;;;;;;;;;;;;;;8.30;52.88;102370.91;4930764;28;97119;-83
2021/03/28 04:17:29;;;;;;;;;;;;;;;8.22;52.86;102372.66;4940155;28;96842;-84
2021/03/28 04:20:02;;;;;;;;;;;;;;;8.23;52.64;102377.06;4941626;28;98396;-84
2021/03/28 04:22:40;;;;;;;;;;;;;;;8.13;52.60;102376.19;4944849;28;97800;-86
2021/03/28 04:25:15;;;;;;;;;;;;;;;8.10;52.78;102368.28;4940433;28;96718;-85
2021/03/28 04:27:58;;;;;;;;;;;;;;;8.10;52.83;102368.28;4952484;28;96829;-85
2021/03/28 04:30:29;;;;;;;;;;;;;;;7.98;53.32;102363.03;4952488;28;101496;-86
2021/03/28 04:32:57;;;;;;;;;;;;;;;8.15;52.92;102363.91;4949242;28;97773;-86
2021/03/28 04:35:38;;;;;;;;;;;;;;;8.21;52.32;102371.78;4957441;28;96394;-86
2021/03/28 04:38:13;;;;;;;;;;;;;;;8.01;52.88;102368.28;4953277;28;96523;-85
2021/03/28 04:40:56;;;;;;;;;;;;;;;8.24;52.22;102360.38;4954348;28;99279;-85
2021/03/28 04:43:41;;;;;;;;;;;;;;;8.25;52.06;102354.25;4937515;28;100521;-85
2021/03/28 04:46:16;;;;;;;;;;;;;;;8.13;51.93;102362.16;4942293;28;96871;-85
2021/03/28 04:49:04;;;;;;;;;;;;;;;8.02;52.29;102372.66;4950965;28;96491;-85
2021/03/28 04:51:49;;;;;;;;;;;;;;;8.32;51.58;102377.09;4954157;28;97844;-84
2021/03/28 04:54:35;;;;;;;;;;;;;;;8.04;52.36;102372.66;4944186;28;98083;-85
2021/03/28 04:57:22;;;;;;;;;;;;;;;8.23;51.52;102375.31;4938818;28;96679;-86
2021/03/28 05:00:04;;;;;;;;;;;;;;;8.22;51.65;102385.84;4932792;28;97041;-87
2021/03/28 05:02:41;;;;;;;;;;;;;;;8.31;51.42;102384.13;4936674;28;98906;-88
2021/03/28 05:05:27;;;;;;;;;;;;;;;7.83;52.03;102386.69;4925912;28;98892;-88
2021/03/28 05:08:12;;;;;;;;;;;;;;;8.15;51.75;102384.06;4931243;28;96839;-89
2021/03/28 05:11:00;;;;;;;;;;;;;;;8.13;51.57;102392.00;4935217;28;96760;-88
2021/03/28 05:13:40;;;;;;;;;;;;;;;8.21;51.31;102389.34;4943721;28;97936;-88
2021/03/28 05:16:30;;;;;;;;;;;;;;;7.95;51.54;102384.94;4936985;28;97902;-86
2021/03/28 05:19:14;;;;;;;;;;;;;;;8.20;51.27;102388.50;4935779;28;97062;-86
2021/03/28 05:21:57;;;;;;;;;;;;;;;8.14;51.09;102388.47;4947100;28;96836;-86
2021/03/28 05:24:41;;;;;;;;;;;;;;;8.07;51.34;102392.00;4907583;28;101446;-84
2021/03/28 05:27:22;;;;;;;;;;;;;;;7.94;51.55;102398.13;4901449;28;97791;-85
2021/03/28 05:30:18;;;;;;;;;;;;;;;8.01;50.98;102390.22;4938063;28;96818;-84
2021/03/28 05:32:57;;;;;;;;;;;;;;;8.04;51.11;102386.72;4877880;28;96974;-86
2021/03/28 05:35:36;;;;;;;;;;;;;;;8.04;51.28;102391.09;4915081;28;100905;-85
2021/03/28 05:38:20;;;;;;;;;;;;;;;7.93;51.24;102388.47;4926492;28;98838;-86
2021/03/28 05:41:05;;;;;;;;;;;;;;;7.99;51.24;102383.22;4931355;28;96554;-87
2021/03/28 05:43:50;;;;;;;;;;;;;;;7.97;50.93;102385.84;4934305;28;96858;-87
2021/03/28 05:46:25;;;;;;;;;;;;;;;8.05;51.12;102390.22;4935148;28;97982;-87
2021/03/28 05:49:01;;;;;;;;;;;;;;;8.18;51.06;102394.63;4923587;28;100348;-87
2021/03/28 05:51:34;;;;;;;;;;;;;;;8.12;50.95;102399.88;4931708;28;96702;-84
2021/03/28 05:54:21;;;;;;;;;;;;;;;8.21;50.24;102397.25;4934182;28;96883;-83
2021/03/28 05:57:02;;;;;;;;;;;;;;;8.09;50.37;102392.84;4938187;28;99357;-87
2021/03/28 05:59:52;;;;;;;;;;;;;;;8.18;49.85;102395.50;4941244;28;98885;-87
2021/03/28 06:02:27;;;;;;;;;;;;;;;8.42;50.11;102392.03;4941389;28;96704;-87
2021/03/28 06:05:21;;;;;;;;;;;;;;;8.53;49.32;102382.38;4930838;28;96782;-87
2021/03/28 06:08:01;;;;;;;;;;;;;;;8.63;49.19;102388.50;4939702;28;99654;-87
2021/03/28 06:10:42;;;;;;;;;;;;;;;8.63;49.01;102393.75;4938210;28;96742;-87
2021/03/28 06:13:22;;;;;;;;;;;;;;;9.02;48.20;102387.53;4929651;28;96896;-87
2021/03/28 06:16:02;;;;;;;;;;;;;;;9.28;47.75;102387.41;4936826;28;96775;-88
2021/03/28 06:18:43;;;;;;;;;;;;;;;9.16;47.47;102391.88;4931623;28;101364;-88
2021/03/28 06:21:19;;;;;;;;;;;;;;;9.31;47.09;102392.69;4938984;28;99091;-87
2021/03/28 06:24:08;;;;;;;;;;;;;;;9.35;47.19;102400.59;4932032;28;96491;-87
2021/03/28 06:26:53;;;;;;;;;;;;;;;9.16;47.03;102402.41;4920780;28;96754;-86
2021/03/28 06:29:36;;;;;;;;;;;;;;;8.95;47.82;102399.84;4927027;28;97856;-85
2021/03/28 06:32:18;;;;;;;;;;;;;;;9.40;47.03;102401.44;4909561;28;97095;-86
2021/03/28 06:35:18;;;;;;;;;;;;;;;9.45;46.84;102398.81;4927839;28;97019;-85
2021/03/28 06:38:05;;;;;;;;;;;;;;;9.33;46.79;102401.47;4935353;28;96702;-85
2021/03/28 06:40:47;;;;;;;;;;;;;;;9.47;46.76;102397.88;4933714;28;97884;-85
2021/03/28 06:43:41;;;;;;;;;;;;;;;9.56;46.12;102403.13;4936477;28;99658;-85
2021/03/28 06:46:18;;;;;;;;;;;;;;;9.56;46.06;102396.97;4948743;28;96513;-85
2021/03/28 06:49:12;;;;;;;;;;;;;;;9.76;45.21;102400.38;4940663;28;96579;-86
2021/03/28 06:52:05;;;;;;;;;;;;;;;10.04;45.03;102406.38;4954335;28;98533;-84
2021/03/28 06:54:49;;;;;;;;;;;;;;;9.78;45.64;102395.94;4927809;28;97977;-85
2021/03/28 06:57:44;;;;;;;;;;;;;;;9.96;45.03;102397.63;4934583;28;96585;-85
2021/03/28 07:00:29;;;;;;;;;;;;;;;10.19;44.86;102398.34;4943193;28;96850;-85
2021/03/28 07:03:25;;;;;;;;;;;;;;;10.10;44.90;102406.31;4947637;28;99416;-85
2021/03/28 07:05:58;;;;;;;;;;;;;;;10.55;43.74;102399.81;4941200;28;98017;-85
2021/03/28 07:08:34;;;;;;;;;;;;;;;10.16;44.97;102400.13;4951552;28;96663;-85
2021/03/28 07:11:15;;;;;;;;;;;;;;;10.36;44.22;102407.03;4943448;28;96758;-86
2021/03/28 07:13:49;;;;;;;;;;;;;;;10.96;42.85;102398.53;4929837;28;97969;-84
2021/03/28 07:16:37;;;;;;;;;;;;;;;10.69;43.26;102408.50;4937066;28;98138;-82
2021/03/28 07:19:18;;;;;;;;;;;;;;;10.82;42.65;102406.59;4943844;28;96745;-84
2021/03/28 07:21:54;;;;;;;;;;;;;;;11.32;41.99;102407.78;4936130;28;96754;-83
2021/03/28 07:24:47;;;;;;;;;;;;;;;11.28;42.03;102401.66;4944033;28;97220;-83
2021/03/28 07:27:27;;;;;;;;;;;;;;;11.10;42.32;102405.38;4939690;28;101295;-85
2021/03/28 07:30:05;;;;;;;;;;;;;;;11.18;41.96;102413.25;4950077;28;97694;-80
2021/03/28 07:32:50;;;;;;;;;;;;;;;11.34;41.47;102400.72;4945780;28;96325;-85
2021/03/28 07:35:26;;;;;;;;;;;;;;;11.25;41.65;102407.00;4946509;28;97867;-84
2021/03/28 07:38:15;;;;;;;;;;;;;;;11.44;41.21;102403.22;4961515;28;97986;-84
2021/03/28 07:41:06;;;;;;;;;;;;;;;11.57;40.38;102402.16;4932521;28;96618;-84
2021/03/28 07:43:50;;;;;;;;;;;;;;;11.97;39.72;102406.94;4949872;28;96748;-84
2021/03/28 07:46:37;;;;;;;;;;;;;;;12.13;39.73;102397.84;4928167;28;98270;-84
2021/03/28 07:49:21;;;;;;;;;;;;;;;12.65;38.95;102396.97;4912607;28;101301;-85
2021/03/28 07:51:59;;;;;;;;;;;;;;;12.53;38.74;102399.84;4938673;28;96995;-85
2021/03/28 07:54:45;;;;;;;;;;;;;;;12.48;38.96;102404.34;4945295;28;96694;-85
2021/03/28 07:57:37;;;;;;;;;;;;;;;12.35;39.19;102403.66;4940621;28;101320;-85
2021/03/28 08:00:27;;;;;;;;;;;;;;;12.53;38.56;102402.50;4934411;28;98430;-85
2021/03/28 08:03:26;;;;;;;;;;;;;;;12.92;37.65;102391.16;4898960;28;96826;-84
2021/03/28 08:06:00;;;;;;;;;;;;;;;12.92;37.45;102392.94;4956247;28;96479;-84
2021/03/28 08:08:39;;;;;;;;;;;;;;;13.00;37.75;102394.53;4959977;28;98236;-83
2021/03/28 08:11:19;;;;;;;;;;;;;;;12.86;37.60;102401.91;4941123;28;97734;-81
2021/03/28 08:14:05;;;;;;;;;;;;;;;12.46;38.05;102407.03;4957789;28;96709;-81
2021/03/28 08:16:39;;;;;;;;;;;;;;;12.50;37.86;102399.88;4948090;28;97607;-83
2021/03/28 08:19:20;;;;;;;;;;;;;;;12.40;38.23;102399.19;4949601;28;99357;-85
2021/03/28 08:21:49;;;;;;;;;;;;;;;12.58;38.03;102397.97;4931408;28;97911;-83
2021/03/28 08:24:36;;;;;;;;;;;;;;;12.48;37.90;102405.22;4943413;28;97346;-82
2021/03/28 08:27:12;;;;;;;;;;;;;;;12.23;38.44;102404.75;4939255;28;98313;-83
2021/03/28 08:29:58;;;;;;;;;;;;;;;12.13;38.36;102410.22;4941050;28;99079;-82
2021/03/28 08:32:52;;;;;;;;;;;;;;;12.33;38.22;102416.09;4941835;28;97830;-84
2021/03/28 08:35:33;;;;;;;;;;;;;;;12.74;37.83;102413.56;4938126;28;97706;-84
2021/03/28 08:38:08;;;;;;;;;;;;;;;13.29;36.96;102403.72;4936657;28;96634;-87
2021/03/28 08:40:57;;;;;;;;;;;;;;;13.67;36.35;102410.88;4940593;28;99753;-85
2021/03/28 08:43:44;;;;;;;;;;;;;;;13.38;36.39;102408.84;4931376;28;98923;-86
2021/03/28 08:46:29;;;;;;;;;;;;;;;13.40;36.57;102407.03;4933834;28;96745;-83
2021/03/28 08:49:01;;;;;;;;;;;;;;;13.40;36.47;102402.59;4937415;28;96868;-83
2021/03/28 08:51:50;;;;;;;;;;;;;;;13.60;36.03;102402.16;4958819;28;100150;-84
2021/03/28 08:54:19;;;;;;;;;;;;;;;13.70;35.75;102397.53;4948543;28;99853;-83
2021/03/28 08:56:49;;;;;;;;;;;;;;;13.84;35.39;102403.41;4956432;28;96681;-85
2021/03/28 08:59:19;;;;;;;;;;;;;;;13.85;35.35;102402.47;4948377;28;96620;-83
2021/03/28 09:01:47;;;;;;;;;;;;;;;14.21;34.50;102406.94;4940043;28;98336;-85
2021/03/28 09:04:23;;;;;;;;;;;;;;;13.82;35.07;102392.81;4949004;28;98804;-85
2021/03/28 09:06:50;;;;;;;;;;;;;;;14.12;34.59;102390.31;4955883;28;96009;-85
2021/03/28 09:09:23;;;;;;;;;;;;;;;14.74;33.79;102387.00;4953519;28;96115;-85
2021/03/28 09:12:00;;;;;;;;;;;;;;;14.97;33.57;102383.69;4952231;28;99687;-86
2021/03/28 09:14:46;;;;;;;;;;;;;;;14.55;34.02;102385.72;4930293;28;98050;-86
2021/03/28 09:17:17;;;;;;;;;;;;;;;14.80;33.44;102380.63;4943513;28;96867;-86
2021/03/28 09:20:03;;;;;;;;;;;;;;;14.89;33.52;102376.84;4951420;28;96638;-86
2021/03/28 09:22:34;;;;;;;;;;;;;;;14.98;34.01;102373.91;4932085;28;98131;-86
2021/03/28 09:25:04;;;;;;;;;;;;;;;14.85;34.47;102377.81;4951530;28;100855;-83
2021/03/28 09:27:38;;;;;;;;;;;;;;;14.48;34.06;102378.81;4951625;28;96483;-84
2021/03/28 09:30:14;;;;;;;;;;;;;;;14.50;33.95;102385.00;4947591;28;96593;-84
2021/03/28 09:32:50;;;;;;;;;;;;;;;15.06;34.13;102379.91;4937131;28;99487;-84
2021/03/28 09:35:24;;;;;;;;;;;;;;;15.36;32.38;102375.50;4946864;28;97924;-84
2021/03/28 09:37:54;;;;;;;;;;;;;;;15.37;32.47;102372.75;4945898;28;97154;-85
2021/03/28 09:40:31;;;;;;;;;;;;;;;14.77;33.67;102378.91;4954974;28;96658;-88
2021/03/28 09:43:19;;;;;;;;;;;;;;;14.63;34.20;102377.56;4938409;28;97226;-83
2021/03/28 09:46:00;;;;;;;;;;;;;;;15.29;33.17;102372.16;4937021;28;99179;-82
2021/03/28 09:48:32;;;;;;;;;;;;;;;15.06;33.18;102366.59;4938309;28;96872;-85
2021/03/28 09:51:08;;;;;;;;;;;;;;;15.40;33.07;102367.38;4945077;28;97715;-85
2021/03/28 09:53:43;;;;;;;;;;;;;;;15.24;33.04;102371.38;4947506;28;99906;-85
2021/03/28 09:56:23;;;;;;;;;;;;;;;15.02;32.10;102371.16;4944853;28;97002;-84
2021/03/28 09:59:06;;;;;;;;;;;;;;;15.11;31.67;102367.31;4935578;28;98722;-84
2021/03/28 10:01:36;;;;;;;;;;;;;;;15.76;30.94;102369.84;4932258;28;96883;-84
2021/03/28 10:04:06;;;;;;;;;;;;;;;16.01;30.66;102365.50;4933855;28;99588;-83
2021/03/28 10:06:34;;;;;;;;;;;;;;;15.85;30.94;102357.09;4934139;28;99210;-84
2021/03/28 10:09:01;;;;;;;;;;;;;;;15.27;31.84;102360.66;4947084;28;96794;-85
2021/03/28 10:11:32;;;;;;;;;;;;;;;15.62;31.66;102354.28;4944926;28;97120;-85
2021/03/28 10:14:02;;;;;;;;;;;;;;;15.28;31.61;102357.06;4953597;28;99805;-86
2021/03/28 10:16:32;;;;;;;;;;;;;;;15.71;31.03;102358.44;4949976;28;98187;-85
2021/03/28 10:19:17;;;;;;;;;;;;;;;15.56;31.51;102353.63;4952860;28;96895;-84
2021/03/28 10:22:07;;;;;;;;;;;;;;;15.89;30.79;102352.53;4949725;28;96412;-84
2021/03/28 10:24:53;;;;;;;;;;;;;;;16.10;30.63;102354.50;4933719;28;98366;-84
2021/03/28 10:27:36;;;;;;;;;;;;;;;15.97;30.45;102357.63;4922698;28;98068;-85
2021/03/28 10:30:09;;;;;;;;;;;;;;;15.90;30.87;102359.59;4940809;28;97957;-85
2021/03/28 10:32:43;;;;;;;;;;;;;;;16.42;29.38;102350.75;4943147;28;96841;-84
2021/03/28 10:35:24;;;;;;;;;;;;;;;16.44;29.18;102345.38;4947824;28;97822;-85
2021/03/28 10:43:56;;;;;;;;;;;;;;;16.09;29.35;102346.53;4950969;28;96605;-86
2021/03/28 10:46:49;;;;;;;;;;;;;;;16.06;29.88;102339.53;4934963;28;98373;-86
2021/03/28 10:49:34;;;;;;;;;;;;;;;16.08;30.05;102352.81;4942609;28;97871;-85
2021/03/28 10:52:21;;;;;;;;;;;;;;;15.80;30.06;102339.50;4935788;28;96761;-84
2021/03/28 10:55:05;;;;;;;;;;;;;;;15.53;30.84;102342.13;4934875;28;96964;-86
2021/03/28 11:00:49;;;;;;;;;;;;;;;15.71;31.02;102335.34;4945112;28;98763;-85
2021/03/28 11:03:41;;;;;;;;;;;;;;;15.39;31.28;102330.97;4941111;28;96936;-88
2021/03/28 11:09:22;;;;;;;;;;;;;;;15.93;31.28;102319.53;4933011;28;98744;-85
2021/03/28 11:11:55;;;;;;;;;;;;;;;15.62;32.28;102329.44;4934951;28;97133;-84
2021/03/28 11:14:39;;;;;;;;;;;;;;;15.13;33.16;102321.13;4936228;28;97691;-86
2021/03/28 11:17:14;;;;;;;;;;;;;;;15.30;32.82;102322.38;4941208;28;96844;-86
2021/03/28 11:22:48;;;;;;;;;;;;;;;15.76;32.66;102313.88;4938028;28;100017;-86
2021/03/28 11:25:22;;;;;;;;;;;;;;;15.75;32.17;102310.31;4945465;28;96869;-85
2021/03/28 11:28:01;;;;;;;;;;;;;;;16.15;31.88;102309.88;4941748;28;97240;-84
2021/03/28 11:30:37;;;;;;;;;;;;;;;16.14;32.15;102318.84;4936355;28;100112;-84
2021/03/28 11:33:31;;;;;;;;;;;;;;;16.31;31.42;102318.25;4946949;28;99929;-84
2021/03/28 11:36:13;;;;;;;;;;;;;;;16.72;31.03;102322.16;4943560;28;98056;-85
2021/03/28 11:39:06;;;;;;;;;;;;;;;16.71;30.99;102315.06;4930583;28;97117;-84
2021/03/28 11:41:51;;;;;;;;;;;;;;;16.23;31.51;102329.16;4937795;28;98398;-85
2021/03/28 11:44:23;;;;;;;;;;;;;;;16.19;30.90;102319.53;4937080;28;99176;-84
2021/03/28 11:46:51;;;;;;;;;;;;;;;16.48;30.56;102306.97;4928053;28;96794;-84
2021/03/28 11:49:19;;;;;;;;;;;;;;;16.01;30.96;102322.81;4939254;28;96861;-86
2021/03/28 11:52:09;;;;;;;;;;;;;;;16.21;30.64;102314.16;4925432;28;98193;-84
2021/03/28 11:54:35;;;;;;;;;;;;;;;16.66;29.84;102312.56;4934759;28;97940;-83
2021/03/28 11:57:14;;;;;;;;;;;;;;;16.88;29.90;102312.63;4939758;28;96816;-86
2021/03/28 12:03:03;;;;;;;;;;;;;;;16.06;31.21;102317.34;4928228;28;99853;-87
2021/03/28 12:05:48;;;;;;;;;;;;;;;16.71;30.28;102304.41;4942585;28;99029;-87
2021/03/28 12:08:17;;;;;;;;;;;;;;;16.87;29.79;102299.38;4949176;28;96792;-89
2021/03/28 12:10:43;;;;;;;;;;;;;;;16.93;29.67;102305.34;4945626;28;97060;-87
2021/03/28 12:13:24;;;;;;;;;;;;;;;17.17;29.54;102308.88;4949759;28;97269;-86
2021/03/28 12:15:58;;;;;;;;;;;;;;;17.06;29.54;102298.63;4945487;28;97725;-86
2021/03/28 12:18:42;;;;;;;;;;;;;;;17.08;29.91;102298.53;4933728;28;96883;-84
2021/03/28 12:21:25;;;;;;;;;;;;;;;16.83;29.95;102308.41;4941777;28;97322;-83
2021/03/28 12:23:58;;;;;;;;;;;;;;;17.48;29.12;102309.44;4924791;28;97704;-83
2021/03/28 12:26:26;;;;;;;;;;;;;;;17.27;29.61;102302.25;4946526;28;98881;-83
2021/03/28 12:28:54;;;;;;;;;;;;;;;17.25;29.74;102300.59;4946030;28;97893;-83
2021/03/28 12:31:31;;;;;;;;;;;;;;;17.39;29.76;102308.94;4946716;28;97370;-82
2021/03/28 12:34:04;;;;;;;;;;;;;;;17.49;29.38;102302.28;4945774;28;102537;-84
2021/03/28 12:36:45;;;;;;;;;;;;;;;17.02;29.92;102296.97;4944245;28;98719;-84
2021/03/28 12:39:13;;;;;;;;;;;;;;;17.38;29.88;102288.50;4933812;28;96925;-82
2021/03/28 12:41:42;;;;;;;;;;;;;;;17.35;30.46;102291.25;4943500;28;97585;-83
2021/03/28 12:44:19;;;;;;;;;;;;;;;17.29;30.11;102281.69;4946561;28;101124;-83
2021/03/28 12:46:50;;;;;;;;;;;;;;;17.72;29.52;102280.03;4947844;28;98245;-84
2021/03/28 12:49:21;;;;;;;;;;;;;;;17.72;29.93;102277.34;4949782;28;96860;-85
2021/03/28 12:51:50;;;;;;;;;;;;;;;17.97;29.59;102269.16;4946919;28;96744;-85
2021/03/28 12:54:29;;;;;;;;;;;;;;;17.38;30.45;102269.78;4943938;28;98137;-84
2021/03/28 12:56:58;;;;;;;;;;;;;;;17.87;30.08;102266.00;4941083;28;99646;-82
2021/03/28 12:59:32;;;;;;;;;;;;;;;17.05;30.94;102270.19;4949301;28;96836;-82
2021/03/28 13:02:13;;;;;;;;;;;;;;;16.85;32.11;102259.38;4938907;28;96938;-83
2021/03/28 13:04:39;;;;;;;;;;;;;;;16.25;33.23;102265.09;4938478;28;99293;-83
2021/03/28 13:07:06;;;;;;;;;;;;;;;16.64;33.12;102269.06;4937820;28;98365;-86
2021/03/28 13:09:36;;;;;;;;;;;;;;;16.74;32.91;102267.78;4954576;28;96947;-85
2021/03/28 13:15:13;;;;;;;;;;;;;;;18.12;31.15;102244.41;4951513;28;98605;-84
2021/03/28 13:17:43;;;;;;;;;;;;;;;18.74;30.08;102243.47;4943683;28;99829;-82
2021/03/28 13:20:17;;;;;;;;;;;;;;;18.74;30.08;102246.16;4934337;28;96670;-82
2021/03/28 13:22:44;;;;;;;;;;;;;;;18.01;30.99;102252.91;4932559;28;97190;-81
2021/03/28 13:28:39;;;;;;;;;;;;;;;16.97;32.96;102247.34;4948181;28;98498;-87
2021/03/28 13:31:21;;;;;;;;;;;;;;;16.58;33.79;102241.69;4950088;28;96159;-84
2021/03/28 13:33:49;;;;;;;;;;;;;;;15.99;34.89;102242.00;4942805;28;97719;-84
2021/03/28 13:36:17;;;;;;;;;;;;;;;16.15;34.96;102245.88;4955026;28;99618;-81
2021/03/28 13:38:45;;;;;;;;;;;;;;;15.95;35.44;102248.34;4946898;28;99398;-84
2021/03/28 13:41:24;;;;;;;;;;;;;;;16.03;35.21;102245.44;4951623;28;95993;-86
2021/03/28 13:43:50;;;;;;;;;;;;;;;16.04;35.45;102256.06;4956071;28;96635;-85
2021/03/28 13:46:20;;;;;;;;;;;;;;;15.76;35.79;102252.56;4956369;28;100281;-86
2021/03/28 13:48:48;;;;;;;;;;;;;;;15.92;35.81;102256.47;4948626;28;98378;-85
2021/03/28 13:51:19;;;;;;;;;;;;;;;16.22;35.12;102250.06;4933887;28;96890;-82
2021/03/28 13:53:56;;;;;;;;;;;;;;;16.57;34.96;102258.63;4940264;28;96950;-83
2021/03/28 13:56:36;;;;;;;;;;;;;;;16.69;34.30;102258.19;4935317;28;99453;-83
2021/03/28 13:59:05;;;;;;;;;;;;;;;16.66;34.50;102243.19;4946897;28;99376;-80
2021/03/28 14:01:36;;;;;;;;;;;;;;;16.29;34.90;102246.25;4931618;28;97735;-83
2021/03/28 14:04:14;;;;;;;;;;;;;;;16.56;34.53;102251.53;4934435;28;97026;-81
2021/03/28 14:06:41;;;;;;;;;;;;;;;16.99;34.01;102257.06;4939942;28;99133;-82